Weather at Malta International Airport

Public forecast

Using degrees Celsius for public forecast. Weather courtesy of forecast.io.

Current aviation weather report (METAR) for Malta International Airport

2024/05/26 14:45 (retrieved 22 minutes ago)

LMML 261445Z 06005KT 020V170 9999 FEW020 25/14 Q1017 NOSIG

Aviation forecast (TAF) for Malta International Airport

2024/05/26 12:00 (retrieved 3 hours ago)

TAF LMML 261100Z 2612/2712 34012KT 9999 FEW020 BECMG 2615/2618 28005KT BECMG 2700/2703 17010KT